Time;durP1;ratioP1;P1;durP2;ratioP2;P2;SDS_P1;SDS_P2;PMS_P1;PMS_P2;Temp;Humidity;BMP_temperature;BMP_pressure;BME280_temperature;BME280_humidity;BME280_pressure;Samples;Min_cycle;Max_cycle;Signal;HPM_P1;HPM_P2
2021/09/13 00:08:04;;;;;;;18.6;11.7;;;;;;;15.84;100;98569.86;;;;
2021/09/13 00:18:04;;;;;;;16.4;14.2;;;;;;;15.7;100;98562.07;;;;
2021/09/13 00:28:03;;;;;;;17.8;14.2;;;;;;;15.67;100;98562.75;;;;
2021/09/13 00:38:03;;;;;;;17.9;15.1;;;;;;;15.71;100;98562.87;;;;
2021/09/13 00:48:02;;;;;;;16.5;14.1;;;;;;;15.55;100;98557.31;;;;
2021/09/13 00:58:02;;;;;;;18.8;15.9;;;;;;;15.41;100;98559.58;;;;
2021/09/13 01:08:02;;;;;;;20.1;14.2;;;;;;;15.48;100;98548.94;;;;
2021/09/13 01:18:01;;;;;;;18.5;12.6;;;;;;;15.34;100;98543.05;;;;
2021/09/13 01:28:01;;;;;;;17.2;13;;;;;;;15.01;100;98545.84;;;;
2021/09/13 01:38:00;;;;;;;12;10.8;;;;;;;14.87;100;98520.94;;;;
2021/09/13 01:48:00;;;;;;;12.5;10.4;;;;;;;14.8;100;98537.78;;;;
2021/09/13 01:57:59;;;;;;;14.6;11.2;;;;;;;14.7;100;98545.55;;;;
2021/09/13 02:08:01;;;;;;;17.4;11.3;;;;;;;14.63;100;98548.81;;;;
2021/09/13 02:18:01;;;;;;;15.9;14.3;;;;;;;14.88;100;98557.81;;;;
2021/09/13 02:28:01;;;;;;;13.7;12.3;;;;;;;15.18;100;98559.21;;;;
2021/09/13 02:38:01;;;;;;;13.5;12.1;;;;;;;15.44;100;98546.11;;;;
2021/09/13 02:48:01;;;;;;;14.9;11.8;;;;;;;15.58;100;98546.56;;;;
2021/09/13 02:58:01;;;;;;;16;11.9;;;;;;;15.7;100;98564.78;;;;
2021/09/13 03:08:01;;;;;;;13.3;11;;;;;;;15.89;100;98559.56;;;;
2021/09/13 03:17:56;;;;;;;11.2;9.6;;;;;;;16.03;100;98572.79;;;;
2021/09/13 03:27:58;;;;;;;13.2;10.2;;;;;;;15.99;100;98575.41;;;;
2021/09/13 03:37:56;;;;;;;12.4;10.3;;;;;;;15.73;100;98569.53;;;;
2021/09/13 03:47:55;;;;;;;13.7;10.3;;;;;;;15.69;100;98574.06;;;;
2021/09/13 03:57:55;;;;;;;14.8;9.9;;;;;;;15.92;100;98577.91;;;;
2021/09/13 04:17:54;;;;;;;16.3;11.1;;;;;;;16.08;100;98575.25;;;;
2021/09/13 04:27:54;;;;;;;12.7;10.3;;;;;;;16.01;100;98580.48;;;;
2021/09/13 04:37:53;;;;;;;12.1;10.4;;;;;;;15.94;100;98583.78;;;;
2021/09/13 04:47:53;;;;;;;12.4;10.9;;;;;;;16.14;100;98592.91;;;;
2021/09/13 04:57:53;;;;;;;16.8;9.6;;;;;;;16.07;100;98589.97;;;;
2021/09/13 05:07:53;;;;;;;13.1;11.1;;;;;;;16.1;100;98598.23;;;;
2021/09/13 05:17:52;;;;;;;15.7;11.5;;;;;;;16.14;100;98611.17;;;;
2021/09/13 05:27:52;;;;;;;13.5;10.3;;;;;;;16.24;100;98614.21;;;;
2021/09/13 05:37:52;;;;;;;14.6;11.1;;;;;;;16.66;100;98619.32;;;;
2021/09/13 05:47:51;;;;;;;11.7;10.3;;;;;;;17.11;100;98622.52;;;;
2021/09/13 05:57:51;;;;;;;13;11.1;;;;;;;17.33;100;98623.83;;;;
2021/09/13 06:07:51;;;;;;;17.5;13.1;;;;;;;17.35;100;98627.81;;;;
2021/09/13 06:17:51;;;;;;;20;16.2;;;;;;;17.75;100;98630.37;;;;
2021/09/13 06:27:51;;;;;;;16.4;14.2;;;;;;;18.29;100;98644.06;;;;
2021/09/13 06:37:51;;;;;;;17.3;12.8;;;;;;;18.69;100;98651.98;;;;
2021/09/13 06:47:51;;;;;;;14.4;12.9;;;;;;;18.79;100;98653.34;;;;
2021/09/13 06:57:51;;;;;;;17.6;15.3;;;;;;;18.73;100;98662.97;;;;
2021/09/13 07:07:51;;;;;;;18.2;15;;;;;;;18.8;100;98668.58;;;;
2021/09/13 07:17:52;;;;;;;20.5;15.1;;;;;;;19.3;100;98667.61;;;;
2021/09/13 07:27:52;;;;;;;17.8;15.7;;;;;;;19.43;100;98677.23;;;;
2021/09/13 07:37:52;;;;;;;17.4;15.6;;;;;;;19.43;100;98682.7;;;;
2021/09/13 07:47:52;;;;;;;27.1;20.7;;;;;;;19.66;100;98683.5;;;;
2021/09/13 07:57:52;;;;;;;24.9;20.2;;;;;;;19.99;100;98686.38;;;;
2021/09/13 08:07:53;;;;;;;30.2;22.3;;;;;;;20.33;100;98695.55;;;;
2021/09/13 08:17:53;;;;;;;23.6;21.1;;;;;;;21.22;100;98702.98;;;;
2021/09/13 08:27:53;;;;;;;30.9;26;;;;;;;21.88;100;98706.77;;;;
2021/09/13 08:37:54;;;;;;;24.8;22.3;;;;;;;21.78;100;98716.48;;;;
2021/09/13 08:48:02;;;;;;;24.6;22;;;;;;;22.28;100;98712.23;;;;
2021/09/13 08:57:55;;;;;;;27.7;23.2;;;;;;;23.04;100;98712.28;;;;
2021/09/13 09:07:55;;;;;;;25.1;21;;;;;;;23;100;98723.27;;;;
2021/09/13 09:17:56;;;;;;;19.3;17.4;;;;;;;22.25;100;98721.2;;;;
2021/09/13 09:27:57;;;;;;;19.9;17.8;;;;;;;22.27;100;98724.38;;;;
2021/09/13 09:38:01;;;;;;;21.3;17.3;;;;;;;22.08;100;98713.63;;;;
2021/09/13 09:48:17;;;;;;;25.6;19.7;;;;;;;22.22;100;98712.94;;;;
2021/09/13 09:58:14;;;;;;;21.5;19;;;;;;;22.54;100;98709.25;;;;
2021/09/13 10:08:07;;;;;;;21.4;16.1;;;;;;;22.49;100;98704.1;;;;
2021/09/13 10:18:02;;;;;;;23.1;15.9;;;;;;;22.72;100;98694.84;;;;
2021/09/13 10:28:07;;;;;;;19.4;15.3;;;;;;;23.1;100;98687.94;;;;
2021/09/13 10:38:01;;;;;;;10.8;7.2;;;;;;;23.08;100;98676.55;;;;
2021/09/13 10:48:01;;;;;;;12.6;8.4;;;;;;;23.11;100;98682.06;;;;
2021/09/13 10:58:02;;;;;;;13.7;10.1;;;;;;;23.55;100;98676.29;;;;
2021/09/13 11:08:31;;;;;;;17.8;10.3;;;;;;;23.51;100;98665.28;;;;
2021/09/13 11:18:04;;;;;;;12.3;8.5;;;;;;;23.81;100;98664.89;;;;
2021/09/13 11:28:07;;;;;;;14.1;10.3;;;;;;;24.23;100;98661.36;;;;
2021/09/13 11:38:05;;;;;;;13.2;10.3;;;;;;;25.41;100;98659.72;;;;
2021/09/13 11:48:06;;;;;;;15.9;9.3;;;;;;;25.15;100;98663.05;;;;
2021/09/13 11:58:08;;;;;;;11.8;8.5;;;;;;;24.27;100;98650.33;;;;
2021/09/13 12:08:08;;;;;;;13.9;8.5;;;;;;;23.79;100;98644.45;;;;
2021/09/13 12:18:09;;;;;;;11.4;8.1;;;;;;;24.33;100;98632.23;;;;
2021/09/13 12:28:10;;;;;;;10.9;8.5;;;;;;;24.29;100;98629.48;;;;
2021/09/13 12:38:10;;;;;;;11.2;8.7;;;;;;;24.27;100;98628.3;;;;
2021/09/13 12:48:11;;;;;;;11.2;8.9;;;;;;;24.42;100;98629.84;;;;
2021/09/13 12:58:12;;;;;;;11.6;7.5;;;;;;;24.09;100;98619.27;;;;
2021/09/13 13:08:13;;;;;;;9.4;7.6;;;;;;;23.69;100;98623.23;;;;
2021/09/13 13:18:14;;;;;;;13.6;7.2;;;;;;;23.35;100;98618.08;;;;
2021/09/13 13:28:14;;;;;;;14.2;9.1;;;;;;;22.87;100;98614.81;;;;
2021/09/13 13:38:15;;;;;;;11.3;7.2;;;;;;;22.85;100;98621.88;;;;
2021/09/13 13:48:16;;;;;;;15.9;8.5;;;;;;;22.97;100;98614.08;;;;
2021/09/13 13:58:16;;;;;;;9.5;6.4;;;;;;;23.36;100;98624.38;;;;
2021/09/13 14:08:18;;;;;;;10.7;7;;;;;;;23.55;100;98621.27;;;;
2021/09/13 14:18:18;;;;;;;10.4;6.4;;;;;;;23.4;100;98619.64;;;;
2021/09/13 14:28:18;;;;;;;8.3;5.7;;;;;;;22.99;100;98621.92;;;;
2021/09/13 14:38:19;;;;;;;12.9;7.3;;;;;;;22.7;100;98628.52;;;;
2021/09/13 14:48:20;;;;;;;17.1;7.1;;;;;;;22.26;100;98639.63;;;;
2021/09/13 14:58:20;;;;;;;14.4;7.1;;;;;;;21.91;100;98649.2;;;;
2021/09/13 15:08:21;;;;;;;15.4;8.1;;;;;;;22.01;100;98655.92;;;;
2021/09/13 15:18:21;;;;;;;11.7;6.8;;;;;;;21.96;100;98648.85;;;;
2021/09/13 15:28:22;;;;;;;8.9;6.8;;;;;;;22.22;100;98660.77;;;;
2021/09/13 15:38:22;;;;;;;10.3;7.3;;;;;;;22.77;100;98656.78;;;;
2021/09/13 15:48:23;;;;;;;10.3;7.6;;;;;;;22.46;100;98662.88;;;;
2021/09/13 15:58:23;;;;;;;12.3;8.7;;;;;;;22.2;100;98665.88;;;;
2021/09/13 16:08:24;;;;;;;14.1;7;;;;;;;22.01;100;98656.72;;;;
2021/09/13 16:18:24;;;;;;;14.6;7.2;;;;;;;23.16;100;98672.63;;;;
2021/09/13 16:28:25;;;;;;;11.6;7.4;;;;;;;23.44;100;98658.97;;;;
2021/09/13 16:38:25;;;;;;;18;6.9;;;;;;;22.05;100;98660.28;;;;
2021/09/13 16:48:26;;;;;;;10.5;7.6;;;;;;;21.33;100;98676.47;;;;
2021/09/13 16:58:26;;;;;;;13;7.7;;;;;;;20.4;100;98679.23;;;;
2021/09/13 17:08:27;;;;;;;10.5;7;;;;;;;19.65;100;98670.17;;;;
2021/09/13 17:18:27;;;;;;;22.2;17.7;;;;;;;19.08;100;98669.14;;;;
2021/09/13 17:28:27;;;;;;;23.5;19.1;;;;;;;18.59;100;98682.58;;;;
2021/09/13 17:38:27;;;;;;;43.1;27.2;;;;;;;18.22;100;98681.34;;;;
2021/09/13 17:48:27;;;;;;;25.1;20.5;;;;;;;17.83;100;98692.11;;;;
2021/09/13 17:58:27;;;;;;;30.7;26.9;;;;;;;17.36;100;98702.93;;;;
2021/09/13 18:08:27;;;;;;;37.4;25.3;;;;;;;17.04;100;98709.45;;;;
2021/09/13 18:18:26;;;;;;;29.5;19.7;;;;;;;16.74;100;98724.52;;;;
2021/09/13 18:28:26;;;;;;;18.8;15.3;;;;;;;16.6;100;98716.72;;;;
2021/09/13 18:38:26;;;;;;;23.7;16;;;;;;;16.47;100;98721.38;;;;
2021/09/13 18:48:26;;;;;;;19.3;13.6;;;;;;;16.26;100;98720.71;;;;
2021/09/13 18:58:25;;;;;;;24.5;17.9;;;;;;;16.21;100;98722.88;;;;
2021/09/13 19:08:25;;;;;;;22.2;17.5;;;;;;;15.95;100;98732.16;;;;
2021/09/13 19:18:25;;;;;;;43.4;25.8;;;;;;;15.62;100;98730.65;;;;
2021/09/13 19:28:24;;;;;;;24.4;19;;;;;;;15.42;100;98733.05;;;;
2021/09/13 19:38:25;;;;;;;20.6;15.2;;;;;;;15.23;100;98737.41;;;;
2021/09/13 19:48:24;;;;;;;16;12.5;;;;;;;15.13;100;98750.25;;;;
2021/09/13 19:58:23;;;;;;;16.5;14.3;;;;;;;15.22;100;98749.39;;;;
2021/09/13 20:08:23;;;;;;;27.2;15.4;;;;;;;15.29;100;98755.87;;;;
2021/09/13 20:18:23;;;;;;;24.6;16.1;;;;;;;15.5;100;98755.85;;;;
2021/09/13 20:28:23;;;;;;;19.4;15.4;;;;;;;15.54;100;98756.77;;;;
2021/09/13 20:38:22;;;;;;;20.8;16.7;;;;;;;15.41;100;98763.27;;;;
2021/09/13 20:48:22;;;;;;;17.6;14.4;;;;;;;15.31;100;98761.75;;;;
2021/09/13 20:58:21;;;;;;;18.2;14.2;;;;;;;15.17;100;98774.05;;;;
2021/09/13 21:08:21;;;;;;;17.9;16;;;;;;;14.96;100;98777.53;;;;
2021/09/13 21:18:20;;;;;;;16.9;14.7;;;;;;;15;100;98777.67;;;;
2021/09/13 21:28:20;;;;;;;25.4;21.6;;;;;;;15.29;100;98782.22;;;;
2021/09/13 21:38:20;;;;;;;21;17.6;;;;;;;15.46;100;98788.3;;;;
2021/09/13 21:48:19;;;;;;;27.2;21.7;;;;;;;15.69;100;98788.72;;;;
2021/09/13 21:58:19;;;;;;;21.8;17.9;;;;;;;15.88;100;98791.73;;;;
2021/09/13 22:08:19;;;;;;;21.3;19;;;;;;;15.86;100;98785.81;;;;
2021/09/13 22:18:18;;;;;;;18.1;16.2;;;;;;;15.8;100;98784.45;;;;
2021/09/13 22:28:18;;;;;;;22.9;18.7;;;;;;;15.54;100;98781.22;;;;
2021/09/13 22:38:17;;;;;;;27.8;17.5;;;;;;;15.18;100;98781.84;;;;
2021/09/13 22:48:17;;;;;;;19.2;16.3;;;;;;;14.8;100;98790.12;;;;
2021/09/13 22:58:16;;;;;;;21.5;16.8;;;;;;;14.51;100;98790.92;;;;
2021/09/13 23:08:16;;;;;;;23.8;16.9;;;;;;;14.22;100;98796.33;;;;
2021/09/13 23:18:15;;;;;;;21.1;14.8;;;;;;;13.96;100;98799.13;;;;
2021/09/13 23:28:15;;;;;;;20.2;17.2;;;;;;;13.66;100;98804.8;;;;
2021/09/13 23:38:14;;;;;;;20.2;16.4;;;;;;;13.59;100;98808;;;;
2021/09/13 23:48:14;;;;;;;19.6;15.6;;;;;;;13.68;100;98811.47;;;;
2021/09/13 23:58:13;;;;;;;19.5;15.8;;;;;;;13.79;100;98807.31;;;;
